Camellia — VRCP9 — position and weather

sailwx.info

Track history (hours):
 
Tides and Currents Weather Stations Pressure Air Temp Water Temp Dewpoint Dewpoint Depression Visibility Wind Speed Wind Dir Waves Ship Positions

Camellia

Last reported at 2016-Jul-25 11:31 UTC. Time now 2016-Jul-25 11:58 UTC.
Position N 47°18' W 002°09'.

Length 222 m; draft 10 m.

Type: Ship (hazmat cat C). MMSI: 477791900.

Date/timePositionNaut miles runAvg speedWind from/ knotsBaromVisibWave heightAir tempDewpointWater temp
2016-Jul-25 11:31N 47°18' W 002°09'0 0.0
2016-Jul-25 09:20N 47°18' W 002°09'0 0.0
2016-Jul-25 08:31N 47°18' W 002°09'0 0.0
2016-Jul-25 07:31N 47°18' W 002°09'0 0.0
2016-Jul-25 06:31N 47°18' W 002°09'0 0.0
2016-Jul-25 05:25N 47°18' W 002°09'0 0.0
2016-Jul-25 04:31N 47°18' W 002°09'0 0.0
2016-Jul-25 03:31N 47°18' W 002°09'0 0.0
2016-Jul-25 02:31N 47°18' W 002°09'0 0.0
2016-Jul-25 01:34N 47°18' W 002°09'0 0.0
2016-Jul-25 00:34N 47°18' W 002°09'0 0.0
2016-Jul-24 23:33N 47°18' W 002°09'0 0.0
2016-Jul-24 22:33N 47°18' W 002°09'0 0.0
2016-Jul-24 21:31N 47°18' W 002°09'0 0.0
2016-Jul-24 20:33N 47°18' W 002°09'0 0.0
2016-Jul-24 19:33N 47°18' W 002°09'0 0.0
2016-Jul-24 18:33N 47°18' W 002°09'3 2.5
2016-Jul-24 17:33N 47°16' W 002°12'1211.8
2016-Jul-24 16:34N 47°07' W 002°22'8 8.0
2016-Jul-24 15:34N 47°02' W 002°32'1413.4
2016-Jul-24 14:33N 47°01' W 002°52'2 1.8
2016-Jul-24 13:33N 47°02' W 002°55'2 1.5
2016-Jul-24 12:33N 47°02' W 002°56'1717.4
2016-Jul-24 11:34N 47°10' W 003°19'1918.8
2016-Jul-24 10:33N 47°18' W 003°44'1918.8
2016-Jul-24 09:33N 47°25' W 004°10'1919.0
2016-Jul-24 08:33N 47°33' W 004°36'1918.6
2016-Jul-24 07:33N 47°41' W 005°01'1918.8
2016-Jul-24 06:33N 47°57' W 005°16'1818.3
2016-Jul-24 05:33N 48°12' W 005°31'1817.9
2016-Jul-24 04:33N 48°27' W 005°46'2215.9
2016-Jul-24 03:10N 48°49' W 005°50'1418.6
2016-Jul-24 02:25N 48°58' W 005°35'1718.7
2016-Jul-24 01:31N 49°06' W 005°12'1010.0
2016-Jul-24 00:33N 49°11' W 004°60'2120.5
2016-Jul-23 23:33N 49°22' W 004°33'2019.6
2016-Jul-23 22:33N 49°31' W 004°06'1818.3
2016-Jul-23 21:33N 49°41' W 003°42'1817.6
2016-Jul-23 20:33N 49°50' W 003°19'1817.6
2016-Jul-23 19:33N 49°58' W 002°54'1918.9
2016-Jul-23 18:33N 50°04' W 002°26'2320.9
2016-Jul-23 17:28N 50°09' W 001°52'2021.9
2016-Jul-23 16:33N 50°01' W 001°23'2222.3
2016-Jul-23 15:33N 49°49' W 000°54'2121.4
2016-Jul-23 14:33N 49°38' W 000°26'1616.5
2016-Jul-23 13:33N 49°31' W 000°03'9 8.8
2016-Jul-23 12:32N 49°27' E 000°10'0 0.0
2016-Jul-23 11:32N 49°27' E 000°10'0 0.0
2016-Jul-23 10:32N 49°27' E 000°10'0 0.0
2016-Jul-23 09:32N 49°27' E 000°10'0 0.0
2016-Jul-23 08:32N 49°27' E 000°10'0 0.0
2016-Jul-23 07:32N 49°27' E 000°10'0 0.0
2016-Jul-23 06:32N 49°27' E 000°10'0 0.0
2016-Jul-23 04:32N 49°27' E 000°10'0 0.0
2016-Jul-23 03:32N 49°27' E 000°10'0 0.0
2016-Jul-23 02:32N 49°27' E 000°10'0 0.0
2016-Jul-23 01:32N 49°27' E 000°10'0 0.0
2016-Jul-23 00:31N 49°27' E 000°10'0 0.0
2016-Jul-22 23:31N 49°27' E 000°10'0 0.0
2016-Jul-22 22:31N 49°27' E 000°10'0 0.0
2016-Jul-22 21:31N 49°27' E 000°10'0 0.0
2016-Jul-22 20:31N 49°27' E 000°10'0 0.0
2016-Jul-22 19:31N 49°27' E 000°10'0 0.0
2016-Jul-22 18:31N 49°27' E 000°10'0 0.0
2016-Jul-22 17:31N 49°27' E 000°10'0 0.0
2016-Jul-22 16:31N 49°27' E 000°10'0 0.0
2016-Jul-22 15:31N 49°27' E 000°10'0 0.0
2016-Jul-22 14:31N 49°27' E 000°10'0 0.0
2016-Jul-22 13:31N 49°27' E 000°10'0 0.0
2016-Jul-22 12:31N 49°27' E 000°10'0 0.0
2016-Jul-22 11:31N 49°27' E 000°10'0 0.0
2016-Jul-22 10:31N 49°27' E 000°10'0 0.0
2016-Jul-22 09:31N 49°27' E 000°10'0 0.0
2016-Jul-22 08:31N 49°27' E 000°10'0 0.0
2016-Jul-22 07:31N 49°27' E 000°10'0 0.0
2016-Jul-22 04:31N 49°27' E 000°10'6 6.4
2016-Jul-22 03:33N 49°30' E 000°01'7 7.2
2016-Jul-22 02:32N 49°34' W 000°08'0 0.1
2016-Jul-22 01:32N 49°34' W 000°08'0 0.2
2016-Jul-22 00:32N 49°34' W 000°08'0 0.1
2016-Jul-21 23:32N 49°34' W 000°08'0 0.0
2016-Jul-21 22:32N 49°34' W 000°08'0 0.0
2016-Jul-21 21:32N 49°34' W 000°08'0 0.1
2016-Jul-21 20:32N 49°34' W 000°08'0 0.1
2016-Jul-21 19:32N 49°34' W 000°08'0 0.2
2016-Jul-21 18:32N 49°34' W 000°08'0 0.1
2016-Jul-21 17:32N 49°34' W 000°08'0 0.0
2016-Jul-21 16:32N 49°34' W 000°08'0 0.0
2016-Jul-21 15:32N 49°34' W 000°08'0 0.0
2016-Jul-21 14:32N 49°34' W 000°08'0 0.1
2016-Jul-21 13:32N 49°34' W 000°08'0 0.2
2016-Jul-21 12:32N 49°34' W 000°08'0 0.1
2016-Jul-21 11:32N 49°34' W 000°08'0 0.0
2016-Jul-21 10:32N 49°34' W 000°08'0 0.0
2016-Jul-21 09:32N 49°34' W 000°08'0 0.0
2016-Jul-21 08:32N 49°34' W 000°08'0 0.1
2016-Jul-21 07:32N 49°34' W 000°08'4 3.9
2016-Jul-21 06:33N 49°38' W 000°09'1817.7
2016-Jul-21 05:33N 49°55' W 000°04'2019.7
2016-Jul-21 04:33N 50°15' W 000°04'1717.0
2016-Jul-21 03:33N 50°31' E 000°07'2019.9
2016-Jul-21 02:34N 50°39' E 000°35'1818.5
2016-Jul-21 01:34N 50°49' E 000°60'1716.8
2016-Jul-21 00:34N 51°00' E 001°20'1615.6
2016-Jul-20 23:34N 51°10' E 001°39'1717.5
2016-Jul-20 22:34N 51°24' E 001°56'2020.3
2016-Jul-20 21:33N 51°40' E 002°16'2120.6
2016-Jul-20 20:33N 51°56' E 002°38'1817.8
2016-Jul-20 19:34N 52°03' E 003°04'1918.6
2016-Jul-20 18:34N 52°03' E 003°34'1413.8
2016-Jul-20 17:33N 52°02' E 003°56'1212.3
2016-Jul-20 16:34N 51°55' E 004°14'8 7.6
2016-Jul-20 15:33N 51°54' E 004°26'1 0.7
2016-Jul-20 14:32N 51°53' E 004°26'0 0.0
2016-Jul-20 13:32N 51°53' E 004°26'0 0.0
2016-Jul-20 12:33N 51°53' E 004°26'0 0.0
2016-Jul-20 11:32N 51°53' E 004°26'0 0.0
2016-Jul-20 10:33N 51°53' E 004°26'0 0.0
2016-Jul-20 09:32N 51°53' E 004°26'0 0.0
2016-Jul-20 08:32N 51°53' E 004°26'0 0.0
2016-Jul-20 07:33N 51°53' E 004°26'0 0.0
2016-Jul-20 06:32N 51°53' E 004°26'0 0.0
2016-Jul-20 05:31N 51°53' E 004°26'0 0.0
2016-Jul-20 04:29N 51°53' E 004°26'0 0.0
2016-Jul-20 03:32N 51°53' E 004°26'0 0.3
2016-Jul-20 02:34N 51°54' E 004°26'6 5.6
2016-Jul-20 01:34N 51°54' E 004°17'1211.6
2016-Jul-20 00:33N 51°60' E 004°01'1313.5
2016-Jul-19 23:33N 51°58' E 003°39'1818.0
2016-Jul-19 22:33N 51°52' E 003°11'1918.4
2016-Jul-19 21:33N 51°38' E 002°52'1716.9
2016-Jul-19 20:34N 51°22' E 002°43'1515.2
2016-Jul-19 19:34N 51°24' E 003°07'4 3.7
2016-Jul-19 18:31N 51°21' E 003°11'0 0.0
2016-Jul-19 17:31N 51°21' E 003°11'0 0.0
2016-Jul-19 16:16N 51°21' E 003°11'0 0.0
2016-Jul-19 15:22N 51°21' E 003°11'0 0.0
2016-Jul-19 14:31N 51°21' E 003°11'0 0.0
2016-Jul-19 13:31N 51°21' E 003°11'0 0.0
2016-Jul-19 12:31N 51°21' E 003°11'0 0.0
2016-Jul-19 11:28N 51°21' E 003°11'0 0.0
2016-Jul-19 10:31N 51°21' E 003°11'5 4.9
2016-Jul-19 09:34N 51°24' E 003°06'1413.6
2016-Jul-19 08:33N 51°21' E 002°44'1212.4
2016-Jul-19 07:33N 51°20' E 002°25'20 6.7
2016-Jul-19 04:33N 51°03' E 002°09'2 2.0
2016-Jul-19 03:19N 51°01' E 002°11'0 0.0
2016-Jul-19 02:31N 51°01' E 002°11'0 0.0
2016-Jul-19 01:31N 51°01' E 002°11'0 0.0
2016-Jul-19 00:22N 51°01' E 002°11'0 0.0
2016-Jul-18 23:28N 51°01' E 002°11'0 0.0
2016-Jul-18 22:31N 51°01' E 002°11'0 0.0
2016-Jul-18 21:31N 51°01' E 002°11'0 0.0
2016-Jul-18 20:25N 51°01' E 002°11'0 0.0
2016-Jul-18 19:34N 51°01' E 002°11'0 0.0
2016-Jul-18 18:34N 51°01' E 002°11'0 0.0
2016-Jul-18 17:33N 51°01' E 002°11'0 0.0
2016-Jul-18 16:33N 51°01' E 002°11'0 0.0
2016-Jul-18 15:33N 51°01' E 002°11'0 0.0
2016-Jul-18 14:33N 51°01' E 002°11'0 0.0
2016-Jul-18 13:33N 51°01' E 002°11'0 0.0
2016-Jul-18 12:33N 51°01' E 002°11'0 0.0
2016-Jul-18 11:30N 51°01' E 002°11'0 0.0
2016-Jul-18 10:33N 51°01' E 002°11'0 0.0
2016-Jul-18 09:33N 51°01' E 002°11'0 0.0
2016-Jul-18 08:33N 51°01' E 002°11'0 0.0
2016-Jul-18 07:33N 51°01' E 002°11'0 0.0
2016-Jul-18 06:33N 51°01' E 002°11'0 0.0
2016-Jul-18 05:30N 51°01' E 002°11'0 0.0
2016-Jul-18 04:33N 51°01' E 002°11'0 0.0
2016-Jul-18 03:33N 51°01' E 002°11'7 6.7
2016-Jul-18 02:34N 51°03' E 002°01'1010.4
2016-Jul-18 01:34N 51°02' E 001°44'1 0.9
2016-Jul-18 00:34N 51°02' E 001°43'1 0.7
2016-Jul-17 23:34N 51°02' E 001°44'4 3.8
2016-Jul-17 22:33N 50°60' E 001°40'8 8.4
2016-Jul-17 21:33N 50°55' E 001°29'4319.0
2016-Jul-17 19:18N 50°26' E 000°39'1521.0
2016-Jul-17 18:34N 50°23' E 000°16'2121.1
2016-Jul-17 17:34N 50°16' W 000°16'2120.9
2016-Jul-17 16:34N 50°10' W 000°47'2020.1
2016-Jul-17 15:33N 50°05' W 001°17'1919.0
2016-Jul-17 14:33N 49°60' W 001°46'4017.8
2016-Jul-17 12:17N 49°49' W 002°47'1918.1
2016-Jul-17 11:12N 49°44' W 003°16'1218.4
2016-Jul-17 10:33N 49°40' W 003°33'2018.2
2016-Jul-17 09:28N 49°37' W 004°03'4118.6
2016-Jul-17 07:15N 49°24' W 005°04'1318.7
2016-Jul-17 06:33N 49°21' W 005°23'3819.1
2016-Jul-17 04:34N 49°09' W 006°19'1919.5
2016-Jul-17 03:33N 49°04' W 006°47'2019.6
2016-Jul-17 02:34N 48°58' W 007°16'6913.7
2016-Jul-16 21:30N 48°37' W 008°56'1819.0
2016-Jul-16 20:33N 48°31' W 009°21'1919.0
2016-Jul-16 19:33N 48°25' W 009°49'2019.2
2016-Jul-16 18:30N 48°18' W 010°17'1819.5
2016-Jul-16 17:33N 48°11' W 010°42'  
Track history (hours):
 
Tides and Currents Weather Stations Pressure Air Temp Water Temp Dewpoint Dewpoint Depression Visibility Wind Speed Wind Dir Waves Ship Positions

Camellia

Last reported at 2016-Jul-25 11:31 UTC. Time now 2016-Jul-25 11:58 UTC.
Position N 47°18' W 002°09'.

Length 222 m; draft 10 m.

Type: Ship (hazmat cat C). MMSI: 477791900.

Date/timePositionNaut miles runAvg speedWind from/ knotsBaromVisibWave heightAir tempDewpointWater temp
2016-Jul-25 11:31N 47°18' W 002°09'0 0.0
2016-Jul-25 09:20N 47°18' W 002°09'0 0.0
2016-Jul-25 08:31N 47°18' W 002°09'0 0.0
2016-Jul-25 07:31N 47°18' W 002°09'0 0.0
2016-Jul-25 06:31N 47°18' W 002°09'0 0.0
2016-Jul-25 05:25N 47°18' W 002°09'0 0.0
2016-Jul-25 04:31N 47°18' W 002°09'0 0.0
2016-Jul-25 03:31N 47°18' W 002°09'0 0.0
2016-Jul-25 02:31N 47°18' W 002°09'0 0.0
2016-Jul-25 01:34N 47°18' W 002°09'0 0.0
2016-Jul-25 00:34N 47°18' W 002°09'0 0.0
2016-Jul-24 23:33N 47°18' W 002°09'0 0.0
2016-Jul-24 22:33N 47°18' W 002°09'0 0.0
2016-Jul-24 21:31N 47°18' W 002°09'0 0.0
2016-Jul-24 20:33N 47°18' W 002°09'0 0.0
2016-Jul-24 19:33N 47°18' W 002°09'0 0.0
2016-Jul-24 18:33N 47°18' W 002°09'3 2.5
2016-Jul-24 17:33N 47°16' W 002°12'1211.8
2016-Jul-24 16:34N 47°07' W 002°22'8 8.0
2016-Jul-24 15:34N 47°02' W 002°32'1413.4
2016-Jul-24 14:33N 47°01' W 002°52'2 1.8
2016-Jul-24 13:33N 47°02' W 002°55'2 1.5
2016-Jul-24 12:33N 47°02' W 002°56'1717.4
2016-Jul-24 11:34N 47°10' W 003°19'1918.8
2016-Jul-24 10:33N 47°18' W 003°44'1918.8
2016-Jul-24 09:33N 47°25' W 004°10'1919.0
2016-Jul-24 08:33N 47°33' W 004°36'1918.6
2016-Jul-24 07:33N 47°41' W 005°01'1918.8
2016-Jul-24 06:33N 47°57' W 005°16'1818.3
2016-Jul-24 05:33N 48°12' W 005°31'1817.9
2016-Jul-24 04:33N 48°27' W 005°46'2215.9
2016-Jul-24 03:10N 48°49' W 005°50'1418.6
2016-Jul-24 02:25N 48°58' W 005°35'1718.7
2016-Jul-24 01:31N 49°06' W 005°12'1010.0
2016-Jul-24 00:33N 49°11' W 004°60'2120.5
2016-Jul-23 23:33N 49°22' W 004°33'2019.6
2016-Jul-23 22:33N 49°31' W 004°06'1818.3
2016-Jul-23 21:33N 49°41' W 003°42'1817.6
2016-Jul-23 20:33N 49°50' W 003°19'1817.6
2016-Jul-23 19:33N 49°58' W 002°54'1918.9
2016-Jul-23 18:33N 50°04' W 002°26'2320.9
2016-Jul-23 17:28N 50°09' W 001°52'2021.9
2016-Jul-23 16:33N 50°01' W 001°23'2222.3
2016-Jul-23 15:33N 49°49' W 000°54'2121.4
2016-Jul-23 14:33N 49°38' W 000°26'1616.5
2016-Jul-23 13:33N 49°31' W 000°03'9 8.8
2016-Jul-23 12:32N 49°27' E 000°10'0 0.0
2016-Jul-23 11:32N 49°27' E 000°10'0 0.0
2016-Jul-23 10:32N 49°27' E 000°10'0 0.0
2016-Jul-23 09:32N 49°27' E 000°10'0 0.0
2016-Jul-23 08:32N 49°27' E 000°10'0 0.0
2016-Jul-23 07:32N 49°27' E 000°10'0 0.0
2016-Jul-23 06:32N 49°27' E 000°10'0 0.0
2016-Jul-23 04:32N 49°27' E 000°10'0 0.0
2016-Jul-23 03:32N 49°27' E 000°10'0 0.0
2016-Jul-23 02:32N 49°27' E 000°10'0 0.0
2016-Jul-23 01:32N 49°27' E 000°10'0 0.0
2016-Jul-23 00:31N 49°27' E 000°10'0 0.0
2016-Jul-22 23:31N 49°27' E 000°10'0 0.0
2016-Jul-22 22:31N 49°27' E 000°10'0 0.0
2016-Jul-22 21:31N 49°27' E 000°10'0 0.0
2016-Jul-22 20:31N 49°27' E 000°10'0 0.0
2016-Jul-22 19:31N 49°27' E 000°10'0 0.0
2016-Jul-22 18:31N 49°27' E 000°10'0 0.0
2016-Jul-22 17:31N 49°27' E 000°10'0 0.0
2016-Jul-22 16:31N 49°27' E 000°10'0 0.0
2016-Jul-22 15:31N 49°27' E 000°10'0 0.0
2016-Jul-22 14:31N 49°27' E 000°10'0 0.0
2016-Jul-22 13:31N 49°27' E 000°10'0 0.0
2016-Jul-22 12:31N 49°27' E 000°10'0 0.0
2016-Jul-22 11:31N 49°27' E 000°10'0 0.0
2016-Jul-22 10:31N 49°27' E 000°10'0 0.0
2016-Jul-22 09:31N 49°27' E 000°10'0 0.0
2016-Jul-22 08:31N 49°27' E 000°10'0 0.0
2016-Jul-22 07:31N 49°27' E 000°10'0 0.0
2016-Jul-22 04:31N 49°27' E 000°10'6 6.4
2016-Jul-22 03:33N 49°30' E 000°01'7 7.2
2016-Jul-22 02:32N 49°34' W 000°08'0 0.1
2016-Jul-22 01:32N 49°34' W 000°08'0 0.2
2016-Jul-22 00:32N 49°34' W 000°08'0 0.1
2016-Jul-21 23:32N 49°34' W 000°08'0 0.0
2016-Jul-21 22:32N 49°34' W 000°08'0 0.0
2016-Jul-21 21:32N 49°34' W 000°08'0 0.1
2016-Jul-21 20:32N 49°34' W 000°08'0 0.1
2016-Jul-21 19:32N 49°34' W 000°08'0 0.2
2016-Jul-21 18:32N 49°34' W 000°08'0 0.1
2016-Jul-21 17:32N 49°34' W 000°08'0 0.0
2016-Jul-21 16:32N 49°34' W 000°08'0 0.0
2016-Jul-21 15:32N 49°34' W 000°08'0 0.0
2016-Jul-21 14:32N 49°34' W 000°08'0 0.1
2016-Jul-21 13:32N 49°34' W 000°08'0 0.2
2016-Jul-21 12:32N 49°34' W 000°08'0 0.1
2016-Jul-21 11:32N 49°34' W 000°08'0 0.0
2016-Jul-21 10:32N 49°34' W 000°08'0 0.0
2016-Jul-21 09:32N 49°34' W 000°08'0 0.0
2016-Jul-21 08:32N 49°34' W 000°08'0 0.1
2016-Jul-21 07:32N 49°34' W 000°08'4 3.9
2016-Jul-21 06:33N 49°38' W 000°09'1817.7
2016-Jul-21 05:33N 49°55' W 000°04'2019.7
2016-Jul-21 04:33N 50°15' W 000°04'1717.0
2016-Jul-21 03:33N 50°31' E 000°07'2019.9
2016-Jul-21 02:34N 50°39' E 000°35'1818.5
2016-Jul-21 01:34N 50°49' E 000°60'1716.8
2016-Jul-21 00:34N 51°00' E 001°20'1615.6
2016-Jul-20 23:34N 51°10' E 001°39'1717.5
2016-Jul-20 22:34N 51°24' E 001°56'2020.3
2016-Jul-20 21:33N 51°40' E 002°16'2120.6
2016-Jul-20 20:33N 51°56' E 002°38'1817.8
2016-Jul-20 19:34N 52°03' E 003°04'1918.6
2016-Jul-20 18:34N 52°03' E 003°34'1413.8
2016-Jul-20 17:33N 52°02' E 003°56'1212.3
2016-Jul-20 16:34N 51°55' E 004°14'8 7.6
2016-Jul-20 15:33N 51°54' E 004°26'1 0.7
2016-Jul-20 14:32N 51°53' E 004°26'0 0.0
2016-Jul-20 13:32N 51°53' E 004°26'0 0.0
2016-Jul-20 12:33N 51°53' E 004°26'0 0.0
2016-Jul-20 11:32N 51°53' E 004°26'0 0.0
2016-Jul-20 10:33N 51°53' E 004°26'0 0.0
2016-Jul-20 09:32N 51°53' E 004°26'0 0.0
2016-Jul-20 08:32N 51°53' E 004°26'0 0.0
2016-Jul-20 07:33N 51°53' E 004°26'0 0.0
2016-Jul-20 06:32N 51°53' E 004°26'0 0.0
2016-Jul-20 05:31N 51°53' E 004°26'0 0.0
2016-Jul-20 04:29N 51°53' E 004°26'0 0.0
2016-Jul-20 03:32N 51°53' E 004°26'0 0.3
2016-Jul-20 02:34N 51°54' E 004°26'6 5.6
2016-Jul-20 01:34N 51°54' E 004°17'1211.6
2016-Jul-20 00:33N 51°60' E 004°01'1313.5
2016-Jul-19 23:33N 51°58' E 003°39'1818.0
2016-Jul-19 22:33N 51°52' E 003°11'1918.4
2016-Jul-19 21:33N 51°38' E 002°52'1716.9
2016-Jul-19 20:34N 51°22' E 002°43'1515.2
2016-Jul-19 19:34N 51°24' E 003°07'4 3.7
2016-Jul-19 18:31N 51°21' E 003°11'0 0.0
2016-Jul-19 17:31N 51°21' E 003°11'0 0.0
2016-Jul-19 16:16N 51°21' E 003°11'0 0.0
2016-Jul-19 15:22N 51°21' E 003°11'0 0.0
2016-Jul-19 14:31N 51°21' E 003°11'0 0.0
2016-Jul-19 13:31N 51°21' E 003°11'0 0.0
2016-Jul-19 12:31N 51°21' E 003°11'0 0.0
2016-Jul-19 11:28N 51°21' E 003°11'0 0.0
2016-Jul-19 10:31N 51°21' E 003°11'5 4.9
2016-Jul-19 09:34N 51°24' E 003°06'1413.6
2016-Jul-19 08:33N 51°21' E 002°44'1212.4
2016-Jul-19 07:33N 51°20' E 002°25'20 6.7
2016-Jul-19 04:33N 51°03' E 002°09'2 2.0
2016-Jul-19 03:19N 51°01' E 002°11'0 0.0
2016-Jul-19 02:31N 51°01' E 002°11'0 0.0
2016-Jul-19 01:31N 51°01' E 002°11'0 0.0
2016-Jul-19 00:22N 51°01' E 002°11'0 0.0
2016-Jul-18 23:28N 51°01' E 002°11'0 0.0
2016-Jul-18 22:31N 51°01' E 002°11'0 0.0
2016-Jul-18 21:31N 51°01' E 002°11'0 0.0
2016-Jul-18 20:25N 51°01' E 002°11'0 0.0
2016-Jul-18 19:34N 51°01' E 002°11'0 0.0
2016-Jul-18 18:34N 51°01' E 002°11'0 0.0
2016-Jul-18 17:33N 51°01' E 002°11'0 0.0
2016-Jul-18 16:33N 51°01' E 002°11'0 0.0
2016-Jul-18 15:33N 51°01' E 002°11'0 0.0
2016-Jul-18 14:33N 51°01' E 002°11'0 0.0
2016-Jul-18 13:33N 51°01' E 002°11'0 0.0
2016-Jul-18 12:33N 51°01' E 002°11'0 0.0
2016-Jul-18 11:30N 51°01' E 002°11'0 0.0
2016-Jul-18 10:33N 51°01' E 002°11'0 0.0
2016-Jul-18 09:33N 51°01' E 002°11'0 0.0
2016-Jul-18 08:33N 51°01' E 002°11'0 0.0
2016-Jul-18 07:33N 51°01' E 002°11'0 0.0
2016-Jul-18 06:33N 51°01' E 002°11'0 0.0
2016-Jul-18 05:30N 51°01' E 002°11'0 0.0
2016-Jul-18 04:33N 51°01' E 002°11'0 0.0
2016-Jul-18 03:33N 51°01' E 002°11'7 6.7
2016-Jul-18 02:34N 51°03' E 002°01'1010.4
2016-Jul-18 01:34N 51°02' E 001°44'1 0.9
2016-Jul-18 00:34N 51°02' E 001°43'1 0.7
2016-Jul-17 23:34N 51°02' E 001°44'4 3.8
2016-Jul-17 22:33N 50°60' E 001°40'8 8.4
2016-Jul-17 21:33N 50°55' E 001°29'4319.0
2016-Jul-17 19:18N 50°26' E 000°39'1521.0
2016-Jul-17 18:34N 50°23' E 000°16'2121.1
2016-Jul-17 17:34N 50°16' W 000°16'2120.9
2016-Jul-17 16:34N 50°10' W 000°47'2020.1
2016-Jul-17 15:33N 50°05' W 001°17'1919.0
2016-Jul-17 14:33N 49°60' W 001°46'4017.8
2016-Jul-17 12:17N 49°49' W 002°47'1918.1
2016-Jul-17 11:12N 49°44' W 003°16'1218.4
2016-Jul-17 10:33N 49°40' W 003°33'2018.2
2016-Jul-17 09:28N 49°37' W 004°03'4118.6
2016-Jul-17 07:15N 49°24' W 005°04'1318.7
2016-Jul-17 06:33N 49°21' W 005°23'3819.1
2016-Jul-17 04:34N 49°09' W 006°19'1919.5
2016-Jul-17 03:33N 49°04' W 006°47'2019.6
2016-Jul-17 02:34N 48°58' W 007°16'6913.7
2016-Jul-16 21:30N 48°37' W 008°56'1819.0
2016-Jul-16 20:33N 48°31' W 009°21'1919.0
2016-Jul-16 19:33N 48°25' W 009°49'2019.2
2016-Jul-16 18:30N 48°18' W 010°17'1819.5
2016-Jul-16 17:33N 48°11' W 010°42'  

Dump ship's entire track history